createdAt,value
2022-12-29T00:00:11.052Z,65.5714
2022-12-29T00:01:11.296Z,65.5
2022-12-29T00:02:11.175Z,65.5714
2022-12-29T00:03:11.324Z,65.5
2022-12-29T00:04:14.734Z,65.4286
2022-12-29T00:05:11.185Z,65.4286
2022-12-29T00:06:11.231Z,65.2857
2022-12-29T00:07:11.255Z,65.0714
2022-12-29T00:08:11.298Z,65.0714
2022-12-29T00:09:11.322Z,65.0714
2022-12-29T00:10:11.378Z,64.9286
2022-12-29T00:11:11.399Z,65
2022-12-29T00:12:11.444Z,65.1429
2022-12-29T00:13:11.469Z,64.8571
2022-12-29T00:14:11.500Z,64.8571
2022-12-29T00:15:11.552Z,64.7857
2022-12-29T00:16:11.681Z,64.6429
2022-12-29T00:17:11.616Z,64.7143
2022-12-29T00:18:11.656Z,64.6429
2022-12-29T00:19:11.687Z,64.6429
2022-12-29T00:20:11.729Z,64.6429
2022-12-29T00:21:11.758Z,64.7143
2022-12-29T00:22:11.793Z,64.6429
2022-12-29T00:23:11.836Z,64.6429
2022-12-29T00:24:11.860Z,64.7143
2022-12-29T00:25:11.888Z,64.6429
2022-12-29T00:26:11.915Z,64.6429
2022-12-29T00:27:11.963Z,64.6429
2022-12-29T00:28:11.988Z,64.7143
2022-12-29T00:29:12.026Z,64.7857
2022-12-29T00:30:12.079Z,64.8571
2022-12-29T00:31:12.143Z,64.7143
2022-12-29T00:32:12.127Z,64.7857
2022-12-29T00:33:12.173Z,64.8571
2022-12-29T00:34:12.203Z,64.9286
2022-12-29T00:35:12.247Z,64.9286
2022-12-29T00:36:12.268Z,65
2022-12-29T00:37:12.311Z,64.8571
2022-12-29T00:38:12.346Z,64.8571
2022-12-29T00:39:12.385Z,64.9286
2022-12-29T00:40:12.435Z,65.0714
2022-12-29T00:41:12.485Z,65.0714
2022-12-29T00:42:12.496Z,65.1429
2022-12-29T00:43:12.537Z,64.9286
2022-12-29T00:44:12.587Z,65
2022-12-29T00:45:12.598Z,65
2022-12-29T00:46:19.270Z,65
2022-12-29T00:47:12.717Z,65
2022-12-29T00:48:12.711Z,65.0714
2022-12-29T00:49:12.733Z,65.0714
2022-12-29T00:50:12.787Z,65.1429
2022-12-29T00:51:12.826Z,65.2143
2022-12-29T00:52:12.841Z,65.2143
2022-12-29T00:53:12.878Z,65.2143
2022-12-29T00:54:12.942Z,65.3571
2022-12-29T00:55:12.971Z,65.2857
2022-12-29T00:56:13.004Z,65.3571
2022-12-29T00:57:13.022Z,65.4286
2022-12-29T00:58:13.879Z,65.5
2022-12-29T00:59:13.102Z,65.4286
2022-12-29T01:00:13.145Z,65.4286
2022-12-29T01:01:13.208Z,65.5714
2022-12-29T01:02:13.417Z,65.5714
2022-12-29T01:03:13.251Z,65.5
2022-12-29T01:04:13.259Z,65.4286
2022-12-29T01:05:13.291Z,65.4286
2022-12-29T01:06:13.327Z,65.4286
2022-12-29T01:07:13.351Z,65.4286
2022-12-29T01:08:13.375Z,65.5
2022-12-29T01:09:13.421Z,65.4286
2022-12-29T01:10:13.457Z,65.3571
2022-12-29T01:11:13.493Z,65.4286
2022-12-29T01:12:13.532Z,65.5
2022-12-29T01:13:13.581Z,65.5
2022-12-29T01:14:13.590Z,65.2857
2022-12-29T01:15:13.646Z,65.3571
2022-12-29T01:16:13.768Z,65.4286
2022-12-29T01:17:13.711Z,65.4286
2022-12-29T01:18:13.741Z,65.5
2022-12-29T01:19:13.776Z,65.5
2022-12-29T01:20:13.820Z,65.4286
2022-12-29T01:21:13.874Z,65.2857
2022-12-29T01:22:13.873Z,65.4286
2022-12-29T01:23:13.908Z,65.5
2022-12-29T01:24:13.939Z,65.3571
2022-12-29T01:25:13.970Z,65.3571
2022-12-29T01:26:14.065Z,65.5
2022-12-29T01:27:14.051Z,65.5
2022-12-29T01:28:14.086Z,65.5714
2022-12-29T01:29:14.111Z,65.5
2022-12-29T01:30:14.153Z,65.7143
2022-12-29T01:31:14.343Z,65.7857
2022-12-29T01:32:14.223Z,65.7857
2022-12-29T01:33:14.257Z,65.8571
2022-12-29T01:34:14.335Z,65.9286
2022-12-29T01:35:14.349Z,66.0714
2022-12-29T01:36:14.363Z,65.9286
2022-12-29T01:37:14.403Z,66
2022-12-29T01:38:14.447Z,66
2022-12-29T01:39:14.604Z,66.2143
2022-12-29T01:40:14.502Z,66.2857
2022-12-29T01:41:14.541Z,66.3571
2022-12-29T01:42:14.579Z,66.4286
2022-12-29T01:43:14.612Z,66.6429
2022-12-29T01:44:14.666Z,66.7857
2022-12-29T01:45:14.683Z,66.9286
2022-12-29T01:46:14.827Z,66.9286
2022-12-29T01:47:14.764Z,67
2022-12-29T01:48:14.801Z,67.0714
2022-12-29T01:49:14.840Z,67.0714
2022-12-29T01:50:14.893Z,67.0714
2022-12-29T01:51:14.916Z,67.1429
2022-12-29T01:52:14.938Z,67.1429
2022-12-29T01:53:14.974Z,67.2857
2022-12-29T01:54:15.050Z,67.4286
2022-12-29T01:55:15.043Z,67.5714
2022-12-29T01:56:15.084Z,67.7143
2022-12-29T01:57:15.129Z,67.8571
2022-12-29T01:58:15.165Z,67.8571
2022-12-29T01:59:15.209Z,67.7857
2022-12-29T02:00:15.236Z,67.5714
2022-12-29T02:01:15.354Z,67.5714
2022-12-29T02:02:15.363Z,67.4286
2022-12-29T02:03:15.381Z,67.5
2022-12-29T02:04:15.359Z,67.5
2022-12-29T02:05:15.401Z,67.3571
2022-12-29T02:06:15.443Z,67.2857
2022-12-29T02:07:15.467Z,67.2143
2022-12-29T02:08:15.519Z,67.0714
2022-12-29T02:09:15.534Z,67.1429
2022-12-29T02:10:15.577Z,67.0714
2022-12-29T02:11:15.638Z,66.9286
2022-12-29T02:12:15.636Z,66.7143
2022-12-29T02:13:15.681Z,66.7143
2022-12-29T02:14:15.715Z,66.5714
2022-12-29T02:15:15.742Z,66.5
2022-12-29T02:16:15.824Z,66.4286
2022-12-29T02:17:15.815Z,66.2143
2022-12-29T02:18:15.853Z,66.1429
2022-12-29T02:19:15.887Z,66.0714
2022-12-29T02:20:15.917Z,66
2022-12-29T02:21:15.955Z,66
2022-12-29T02:22:15.999Z,65.9286
2022-12-29T02:23:16.056Z,65.8571
2022-12-29T02:24:16.064Z,65.7143
2022-12-29T02:25:16.100Z,65.7143
2022-12-29T02:26:16.134Z,65.6429
2022-12-29T02:27:16.184Z,65.6429
2022-12-29T02:28:16.226Z,65.4286
2022-12-29T02:29:16.234Z,65.2143
2022-12-29T02:30:16.275Z,65.2143
2022-12-29T02:31:16.394Z,65.1429
2022-12-29T02:32:16.352Z,65
2022-12-29T02:33:16.389Z,64.7857
2022-12-29T02:34:16.427Z,64.7143
2022-12-29T02:35:16.462Z,64.6429
2022-12-29T02:36:16.520Z,64.5714
2022-12-29T02:37:16.527Z,64.3571
2022-12-29T02:38:16.560Z,64.2857
2022-12-29T02:39:16.585Z,64.1429
2022-12-29T02:40:16.629Z,64.1429
2022-12-29T02:41:16.677Z,64.1429
2022-12-29T02:42:16.688Z,64.0714
2022-12-29T02:43:16.812Z,64
2022-12-29T02:44:16.801Z,64.0714
2022-12-29T02:45:16.805Z,63.8571
2022-12-29T02:46:16.900Z,63.7143
2022-12-29T02:47:16.872Z,63.7143
2022-12-29T02:48:16.947Z,63.7857
2022-12-29T02:49:16.943Z,63.5714
2022-12-29T02:50:17.000Z,63.3571
2022-12-29T02:51:17.034Z,63.2857
2022-12-29T02:52:17.025Z,63.2143
2022-12-29T02:53:17.079Z,63.0714
2022-12-29T02:54:17.137Z,63.1429
2022-12-29T02:55:17.148Z,63
2022-12-29T02:56:17.196Z,62.9286
2022-12-29T02:57:18.505Z,63
2022-12-29T02:58:17.254Z,62.7857
2022-12-29T02:59:17.300Z,62.7143
2022-12-29T03:00:17.348Z,62.7143
2022-12-29T03:01:17.568Z,62.5
2022-12-29T03:02:17.728Z,62.4286
2022-12-29T03:03:17.538Z,62.3571
2022-12-29T03:04:17.462Z,62.2143
2022-12-29T03:05:17.504Z,62.1429
2022-12-29T03:06:17.544Z,62.2143
2022-12-29T03:07:17.583Z,62.2143
2022-12-29T03:08:17.598Z,62.2143
2022-12-29T03:09:18.748Z,62.2143
2022-12-29T03:10:17.684Z,62.0714
2022-12-29T03:11:17.704Z,62.0714
2022-12-29T03:12:17.745Z,61.8571
2022-12-29T03:13:17.787Z,61.8571
2022-12-29T03:14:17.817Z,61.7857
2022-12-29T03:15:17.851Z,61.8571
2022-12-29T03:16:17.917Z,61.9286
2022-12-29T03:17:17.946Z,61.6429
2022-12-29T03:18:17.952Z,61.6429
2022-12-29T03:19:17.980Z,61.6429
2022-12-29T03:20:18.010Z,61.7143
2022-12-29T03:21:18.093Z,61.7143
2022-12-29T03:22:18.087Z,61.5714
2022-12-29T03:23:18.126Z,61.5714
2022-12-29T03:24:18.166Z,61.5714
2022-12-29T03:25:18.210Z,61.6429
2022-12-29T03:26:18.254Z,61.5
2022-12-29T03:27:18.274Z,61.4286
2022-12-29T03:28:18.313Z,61.5
2022-12-29T03:29:18.346Z,61.5
2022-12-29T03:30:18.383Z,61.5
2022-12-29T03:31:18.488Z,61.5714
2022-12-29T03:32:18.452Z,61.5
2022-12-29T03:33:18.471Z,61.7143
2022-12-29T03:34:18.515Z,61.7143
2022-12-29T03:35:18.576Z,61.5714
2022-12-29T03:36:18.589Z,61.5714
2022-12-29T03:37:18.607Z,61.6429
2022-12-29T03:38:18.652Z,61.5
2022-12-29T03:39:18.679Z,61.4286
2022-12-29T03:40:18.725Z,61.5714
2022-12-29T03:41:18.759Z,61.4286
2022-12-29T03:42:18.795Z,61.5
2022-12-29T03:43:18.822Z,61.5
2022-12-29T03:44:18.839Z,61.5714
2022-12-29T03:45:18.886Z,61.4286
2022-12-29T03:46:18.928Z,61.5
2022-12-29T03:47:18.982Z,61.5
2022-12-29T03:48:18.980Z,61.5714
2022-12-29T03:49:19.016Z,61.5714
2022-12-29T03:50:19.042Z,61.5
2022-12-29T03:51:19.084Z,61.5
2022-12-29T03:52:19.142Z,61.4286
2022-12-29T03:53:19.155Z,61.4286
2022-12-29T03:54:19.176Z,61.4286
2022-12-29T03:55:19.230Z,61.4286
2022-12-29T03:56:19.286Z,61.3571
2022-12-29T03:57:19.301Z,61.2857
2022-12-29T03:58:19.338Z,61.4286
2022-12-29T03:59:19.369Z,61.5714
2022-12-29T04:00:19.423Z,61.4286
2022-12-29T04:01:19.566Z,61.4286
2022-12-29T04:02:19.705Z,61.3571
2022-12-29T04:03:19.603Z,61.3571
2022-12-29T04:04:19.546Z,61.3571
2022-12-29T04:05:19.599Z,61.3571
2022-12-29T04:06:19.634Z,61.4286
2022-12-29T04:07:19.652Z,61.5
2022-12-29T04:08:19.710Z,61.4286
2022-12-29T04:09:19.715Z,61.5
2022-12-29T04:10:19.754Z,61.3571
2022-12-29T04:11:19.800Z,61.2857
2022-12-29T04:12:19.824Z,61.4286
2022-12-29T04:13:19.865Z,61.4286
2022-12-29T04:14:19.893Z,61.3571
2022-12-29T04:15:19.930Z,61.2857
2022-12-29T04:16:20.102Z,61.5
2022-12-29T04:17:20.010Z,61.3571
2022-12-29T04:18:20.056Z,61.2857
2022-12-29T04:19:20.065Z,61.2143
2022-12-29T04:20:20.109Z,61.2857
2022-12-29T04:21:20.174Z,61.2143
2022-12-29T04:22:20.171Z,61.2857
2022-12-29T04:23:20.208Z,61.2857
2022-12-29T04:24:20.246Z,61.1429
2022-12-29T04:25:20.276Z,61.2143
2022-12-29T04:26:20.333Z,61.2143
2022-12-29T04:27:20.374Z,61.2143
2022-12-29T04:28:20.386Z,61.2143
2022-12-29T04:29:20.423Z,61.2143
2022-12-29T04:30:20.465Z,61.0714
2022-12-29T04:31:20.630Z,61.1429
2022-12-29T04:32:20.552Z,61
2022-12-29T04:33:20.566Z,61.0714
2022-12-29T04:34:20.644Z,61.0714
2022-12-29T04:35:20.652Z,61
2022-12-29T04:36:24.272Z,61.0714
2022-12-29T04:37:20.715Z,61.1429
2022-12-29T04:38:20.749Z,61.1429
2022-12-29T04:39:20.819Z,61.2143
2022-12-29T04:40:20.825Z,61.2143
2022-12-29T04:41:20.884Z,61.2143
2022-12-29T04:42:20.881Z,61.2857
2022-12-29T04:43:20.915Z,61.3571
2022-12-29T04:44:20.963Z,61.3571
2022-12-29T04:45:20.991Z,61.2857
2022-12-29T04:46:21.098Z,61.3571
2022-12-29T04:47:21.106Z,61.4286
2022-12-29T04:48:21.081Z,61.5714
2022-12-29T04:49:21.128Z,61.5
2022-12-29T04:50:21.150Z,61.5714
2022-12-29T04:51:21.184Z,61.6429
2022-12-29T04:52:21.253Z,61.5714
2022-12-29T04:53:21.286Z,61.6429
2022-12-29T04:54:21.300Z,61.6429
2022-12-29T04:55:21.345Z,61.6429
2022-12-29T04:56:21.379Z,61.6429
2022-12-29T04:57:21.412Z,61.6429
2022-12-29T04:58:23.163Z,61.6429
2022-12-29T04:59:21.496Z,61.5714
2022-12-29T05:00:21.531Z,61.5714
2022-12-29T05:01:21.701Z,61.6429
2022-12-29T05:02:21.875Z,61.6429
2022-12-29T05:03:21.808Z,61.6429
2022-12-29T05:04:21.667Z,61.5714
2022-12-29T05:05:21.702Z,61.5
2022-12-29T05:06:21.749Z,61.5
2022-12-29T05:07:21.791Z,61.4286
2022-12-29T05:08:27.644Z,61.5
2022-12-29T05:09:21.826Z,61.5
2022-12-29T05:10:21.862Z,61.5714
2022-12-29T05:11:21.916Z,61.5714
2022-12-29T05:12:21.974Z,61.5
2022-12-29T05:13:22.019Z,61.5
2022-12-29T05:14:22.036Z,61.5714
2022-12-29T05:15:22.063Z,61.6429
2022-12-29T05:16:22.209Z,61.5714
2022-12-29T05:17:22.145Z,61.6429
2022-12-29T05:18:22.206Z,61.7143
2022-12-29T05:19:22.224Z,61.6429
2022-12-29T05:20:22.249Z,61.6429
2022-12-29T05:21:22.317Z,61.7857
2022-12-29T05:22:22.324Z,61.7143
2022-12-29T05:23:22.367Z,61.7143
2022-12-29T05:24:22.408Z,61.7143
2022-12-29T05:25:22.439Z,61.7143
2022-12-29T05:26:22.493Z,61.7143
2022-12-29T05:27:22.546Z,61.7857
2022-12-29T05:28:22.566Z,61.7857
2022-12-29T05:29:22.594Z,61.9286
2022-12-29T05:30:22.633Z,61.8571
2022-12-29T05:31:22.732Z,61.7857
2022-12-29T05:32:22.726Z,61.7143
2022-12-29T05:33:22.756Z,61.6429
2022-12-29T05:34:22.773Z,61.5
2022-12-29T05:35:22.804Z,61.5
2022-12-29T05:36:22.845Z,61.5714
2022-12-29T05:37:22.878Z,61.5714
2022-12-29T05:38:22.914Z,61.4286
2022-12-29T05:39:22.947Z,61.5714
2022-12-29T05:40:22.992Z,61.5714
2022-12-29T05:41:23.047Z,61.5714
2022-12-29T05:42:23.059Z,61.5714
2022-12-29T05:43:23.095Z,61.6429
2022-12-29T05:44:23.117Z,61.7143
2022-12-29T05:45:23.199Z,61.7857
2022-12-29T05:46:23.263Z,61.7857
2022-12-29T05:47:23.257Z,61.8571
2022-12-29T05:48:23.262Z,61.9286
2022-12-29T05:49:23.296Z,62.0714
2022-12-29T05:50:23.333Z,62.0714
2022-12-29T05:51:23.368Z,62
2022-12-29T05:52:23.419Z,61.9286
2022-12-29T05:53:23.438Z,61.8571
2022-12-29T05:54:23.476Z,61.9286
2022-12-29T05:55:23.513Z,61.7857
2022-12-29T05:56:23.595Z,61.7857
2022-12-29T05:57:23.583Z,61.7857
2022-12-29T05:58:23.616Z,61.7857
2022-12-29T05:59:23.650Z,61.7143
2022-12-29T06:00:23.698Z,61.6429
2022-12-29T06:01:23.780Z,61.6429
2022-12-29T06:02:23.964Z,61.5714
2022-12-29T06:03:23.883Z,61.7143
2022-12-29T06:04:23.824Z,61.6429
2022-12-29T06:05:23.879Z,61.7143
2022-12-29T06:06:23.888Z,61.7857
2022-12-29T06:07:23.948Z,61.7857
2022-12-29T06:08:23.967Z,61.6429
2022-12-29T06:09:24.025Z,61.6429
2022-12-29T06:10:24.069Z,61.5714
2022-12-29T06:11:24.064Z,61.4286
2022-12-29T06:12:24.096Z,61.5
2022-12-29T06:13:24.135Z,61.4286
2022-12-29T06:14:24.165Z,61.3571
2022-12-29T06:15:24.207Z,61.3571
2022-12-29T06:16:24.265Z,61.3571
2022-12-29T06:17:24.255Z,61.4286
2022-12-29T06:18:24.299Z,61.3571
2022-12-29T06:19:24.327Z,61.2857
2022-12-29T06:20:24.367Z,61.2857
2022-12-29T06:21:24.428Z,61.2143
2022-12-29T06:22:24.431Z,61.2143
2022-12-29T06:23:24.461Z,61.2857
2022-12-29T06:24:24.499Z,61.3571
2022-12-29T06:25:24.530Z,61.3571
2022-12-29T06:26:24.575Z,61.2857
2022-12-29T06:27:24.658Z,61.2857
2022-12-29T06:28:24.634Z,61.2857
2022-12-29T06:29:24.667Z,61.3571
2022-12-29T06:30:24.743Z,61.4286
2022-12-29T06:31:24.791Z,61.2143
2022-12-29T06:32:24.775Z,61.1429
2022-12-29T06:33:24.803Z,61.2143
2022-12-29T06:34:24.836Z,61.2857
2022-12-29T06:35:24.869Z,61.2143
2022-12-29T06:36:24.903Z,61.2143
2022-12-29T06:37:24.942Z,61.1429
2022-12-29T06:38:24.976Z,61.2143
2022-12-29T06:39:25.015Z,61.2143
2022-12-29T06:40:25.053Z,61.2143
2022-12-29T06:41:31.802Z,61.2143
2022-12-29T06:42:25.115Z,61.2143
2022-12-29T06:43:25.157Z,61.2143
2022-12-29T06:44:25.191Z,61.2857
2022-12-29T06:45:25.225Z,61.2857
2022-12-29T06:46:25.349Z,61.3571
2022-12-29T06:47:25.338Z,61.4286
2022-12-29T06:48:25.340Z,61.4286
2022-12-29T06:49:25.404Z,61.5
2022-12-29T06:50:25.425Z,61.6429
2022-12-29T06:51:25.450Z,61.7143
2022-12-29T06:52:25.492Z,61.7857
2022-12-29T06:53:25.502Z,61.7857
2022-12-29T06:54:25.537Z,61.9286
2022-12-29T06:55:25.567Z,61.8571
2022-12-29T06:56:25.614Z,61.9286
2022-12-29T06:57:25.641Z,62
2022-12-29T06:58:25.668Z,61.9286
2022-12-29T06:59:25.699Z,62
2022-12-29T07:00:25.745Z,62.0714
2022-12-29T07:01:25.911Z,62.0714
2022-12-29T07:02:25.996Z,62.1429
2022-12-29T07:03:25.890Z,62.2143
2022-12-29T07:04:25.871Z,62.2143
2022-12-29T07:05:25.924Z,62.2143
2022-12-29T07:06:25.928Z,62.3571
2022-12-29T07:07:25.958Z,62.4286
2022-12-29T07:08:25.997Z,62.4286
2022-12-29T07:09:26.036Z,62.4286
2022-12-29T07:10:26.104Z,62.4286
2022-12-29T07:11:26.128Z,62.3571
2022-12-29T07:12:26.139Z,62.4286
2022-12-29T07:13:26.181Z,62.5
2022-12-29T07:14:26.198Z,62.5
2022-12-29T07:15:26.228Z,62.5714
2022-12-29T07:16:26.310Z,62.5714
2022-12-29T07:17:26.309Z,62.6429
2022-12-29T07:18:26.340Z,62.6429
2022-12-29T07:19:26.372Z,62.7143
2022-12-29T07:20:26.951Z,62.7143
2022-12-29T07:21:26.474Z,62.7143
2022-12-29T07:22:26.477Z,62.7143
2022-12-29T07:23:26.501Z,62.7143
2022-12-29T07:24:26.553Z,62.8571
2022-12-29T07:25:26.565Z,62.9286
2022-12-29T07:26:30.299Z,62.9286
2022-12-29T07:27:26.633Z,63
2022-12-29T07:28:26.679Z,63
2022-12-29T07:29:26.713Z,63.0714
2022-12-29T07:30:26.744Z,63.0714
2022-12-29T07:31:26.835Z,63.0714
2022-12-29T07:32:26.863Z,63.0714
2022-12-29T07:33:26.856Z,63.0714
2022-12-29T07:34:26.897Z,63.1429
2022-12-29T07:35:26.919Z,63.1429
2022-12-29T07:36:32.395Z,63.0714
2022-12-29T07:37:27.017Z,63
2022-12-29T07:38:27.023Z,62.9286
2022-12-29T07:39:27.050Z,63
2022-12-29T07:40:27.092Z,63
2022-12-29T07:41:27.126Z,62.9286
2022-12-29T07:42:27.188Z,63
2022-12-29T07:43:27.222Z,62.9286
2022-12-29T07:44:27.226Z,63
2022-12-29T07:45:27.254Z,63
2022-12-29T07:46:55.623Z,63
2022-12-29T07:47:27.310Z,63
2022-12-29T07:48:27.354Z,63
2022-12-29T07:49:27.390Z,62.9286
2022-12-29T07:50:27.499Z,62.8571
2022-12-29T07:51:27.487Z,62.9286
2022-12-29T07:52:27.507Z,63
2022-12-29T07:53:27.529Z,62.8571
2022-12-29T07:54:27.586Z,62.7143
2022-12-29T07:55:27.604Z,62.7143
2022-12-29T07:56:27.659Z,62.6429
2022-12-29T07:57:31.802Z,62.5714
2022-12-29T07:58:27.709Z,62.5714
2022-12-29T07:59:27.754Z,62.5714
2022-12-29T08:00:27.791Z,62.6429
2022-12-29T08:01:27.937Z,62.7143
2022-12-29T08:02:28.127Z,62.7143
2022-12-29T08:03:27.929Z,62.6429
2022-12-29T08:04:27.935Z,62.5714
2022-12-29T08:05:27.975Z,62.6429
2022-12-29T08:06:28.004Z,62.5714
2022-12-29T08:07:28.040Z,62.4286
2022-12-29T08:08:28.076Z,62.5714
2022-12-29T08:09:28.104Z,62.5
2022-12-29T08:10:28.244Z,62.5
2022-12-29T08:11:28.181Z,62.4286
2022-12-29T08:12:28.195Z,62.5
2022-12-29T08:13:28.225Z,62.3571
2022-12-29T08:14:28.258Z,62.2143
2022-12-29T08:15:32.359Z,62.2143
2022-12-29T08:16:28.589Z,62.2143
2022-12-29T08:17:28.343Z,62.1429
2022-12-29T08:18:28.386Z,62.0714
2022-12-29T08:19:28.426Z,62.1429
2022-12-29T08:20:28.448Z,62.2857
2022-12-29T08:21:28.489Z,62.2143
2022-12-29T08:22:28.514Z,62.3571
2022-12-29T08:23:28.547Z,62.2857
2022-12-29T08:24:28.588Z,62.4286
2022-12-29T08:25:28.614Z,62.4286
2022-12-29T08:26:28.642Z,62.4286
2022-12-29T08:27:28.679Z,62.5
2022-12-29T08:28:28.717Z,62.5
2022-12-29T08:29:28.739Z,62.5714
2022-12-29T08:30:28.774Z,62.7143
2022-12-29T08:31:28.915Z,62.7143
2022-12-29T08:32:28.845Z,62.5714
2022-12-29T08:33:28.872Z,62.5
2022-12-29T08:34:28.896Z,62.5714
2022-12-29T08:35:28.937Z,62.5714
2022-12-29T08:36:28.992Z,62.5
2022-12-29T08:37:31.279Z,62.6429
2022-12-29T08:38:29.039Z,62.6429
2022-12-29T08:39:29.075Z,62.7143
2022-12-29T08:40:29.122Z,62.7857
2022-12-29T08:41:29.153Z,62.9286
2022-12-29T08:42:29.185Z,62.8571
2022-12-29T08:43:29.220Z,62.6429
2022-12-29T08:44:29.226Z,62.4286
2022-12-29T08:45:29.263Z,62.1429
2022-12-29T08:46:29.374Z,61.9286
2022-12-29T08:47:29.331Z,61.6429
2022-12-29T08:48:29.357Z,61.2143
2022-12-29T08:49:29.393Z,61.0714
2022-12-29T08:50:29.424Z,60.9286
2022-12-29T08:51:29.448Z,60.7143
2022-12-29T08:52:29.479Z,60.7143
2022-12-29T08:53:29.524Z,60.6429
2022-12-29T08:54:29.549Z,60.6429
2022-12-29T08:55:29.612Z,60.6429
2022-12-29T08:56:29.615Z,60.5
2022-12-29T08:57:29.648Z,60.5714
2022-12-29T08:58:29.677Z,60.5714
2022-12-29T08:59:29.710Z,60.5
2022-12-29T09:00:29.757Z,60.5714
2022-12-29T09:01:29.936Z,60.7143
2022-12-29T09:02:29.941Z,60.6429
2022-12-29T09:04:12.999Z,60.6429
2022-12-29T09:04:30.064Z,60.5714
2022-12-29T09:05:29.904Z,60.5714
2022-12-29T09:06:32.584Z,60.5714
2022-12-29T09:07:29.991Z,60.6429
2022-12-29T09:08:30.007Z,60.7143
2022-12-29T09:09:30.033Z,60.7143
2022-12-29T09:10:30.073Z,61
2022-12-29T09:11:30.105Z,61
2022-12-29T09:12:35.948Z,61
2022-12-29T09:13:30.158Z,61.1429
2022-12-29T09:14:30.188Z,61.0714
2022-12-29T09:15:30.234Z,61.2143
2022-12-29T09:16:30.408Z,61.2857
2022-12-29T09:17:30.301Z,61.3571
2022-12-29T09:18:30.323Z,61.3571
2022-12-29T09:19:30.363Z,61.2857
2022-12-29T09:20:30.408Z,61.2143
2022-12-29T09:21:30.456Z,61.2857
2022-12-29T09:22:30.469Z,61.2143
2022-12-29T09:23:30.507Z,61.2143
2022-12-29T09:24:30.555Z,61.2143
2022-12-29T09:25:30.603Z,61.3571
2022-12-29T09:26:30.610Z,61.2857
2022-12-29T09:27:30.647Z,61.5
2022-12-29T09:28:30.671Z,61.4286
2022-12-29T09:29:30.712Z,61.2857
2022-12-29T09:30:30.763Z,61.4286
2022-12-29T09:31:30.815Z,61.4286
2022-12-29T09:32:33.881Z,61.4286
2022-12-29T09:33:30.836Z,61.3571
2022-12-29T09:34:30.882Z,61.3571
2022-12-29T09:35:30.909Z,61.2143
2022-12-29T09:36:30.994Z,61.3571
2022-12-29T09:37:30.980Z,61.1429
2022-12-29T09:38:31.014Z,61.0714
2022-12-29T09:39:31.052Z,61.2143
2022-12-29T09:40:31.085Z,61.1429
2022-12-29T09:41:31.163Z,61.3571
2022-12-29T09:42:31.149Z,61.2143
2022-12-29T09:43:31.195Z,61.1429
2022-12-29T09:44:31.225Z,61.0714
2022-12-29T09:45:31.256Z,61.0714
2022-12-29T09:46:31.328Z,60.9286
2022-12-29T09:47:31.344Z,61
2022-12-29T09:48:31.372Z,61.1429
2022-12-29T09:49:31.396Z,60.9286
2022-12-29T09:50:31.428Z,60.7143
2022-12-29T09:51:31.459Z,60.6429
2022-12-29T09:52:31.490Z,60.6429
2022-12-29T09:53:31.530Z,60.8571
2022-12-29T09:54:31.570Z,60.6429
2022-12-29T09:55:31.622Z,60.5714
2022-12-29T09:56:31.685Z,60.7857
2022-12-29T09:57:31.692Z,60.6429
2022-12-29T09:58:31.702Z,60.4286
2022-12-29T09:59:31.753Z,60.5714
2022-12-29T10:00:31.817Z,60.5714
2022-12-29T10:01:32.021Z,60.5714
2022-12-29T10:02:31.903Z,60.5
2022-12-29T10:03:31.946Z,60.5
2022-12-29T10:04:31.929Z,60.5
2022-12-29T10:05:31.964Z,60.3571
2022-12-29T10:06:31.991Z,60.4286
2022-12-29T10:07:32.033Z,60.5714
2022-12-29T10:08:32.125Z,60.6429
2022-12-29T10:09:32.120Z,60.6429
2022-12-29T10:10:32.143Z,60.5
2022-12-29T10:11:32.172Z,60.5714
2022-12-29T10:12:32.207Z,60.5714
2022-12-29T10:13:32.470Z,60.6429
2022-12-29T10:14:32.267Z,60.7857
2022-12-29T10:15:32.306Z,60.5714
2022-12-29T10:16:32.395Z,60.6429
2022-12-29T10:17:32.376Z,60.7857
2022-12-29T10:18:32.415Z,60.7857
2022-12-29T10:19:33.546Z,60.3571
2022-12-29T10:20:32.503Z,60.4286
2022-12-29T10:21:32.541Z,60.5714
2022-12-29T10:22:32.537Z,60.5
2022-12-29T10:23:32.586Z,60.3571
2022-12-29T10:24:32.601Z,60.3571
2022-12-29T10:25:33.246Z,60.3571
2022-12-29T10:26:32.716Z,60.1429
2022-12-29T10:27:32.714Z,59.6429
2022-12-29T10:28:32.745Z,59.2857
2022-12-29T10:29:32.787Z,59.2143
2022-12-29T10:30:32.813Z,59.1429
2022-12-29T10:31:32.906Z,59.1429
2022-12-29T10:32:32.882Z,59.2143
2022-12-29T10:33:32.911Z,59.0714
2022-12-29T10:34:32.952Z,58.7857
2022-12-29T10:35:32.983Z,59
2022-12-29T10:36:33.011Z,59.1429
2022-12-29T10:37:34.211Z,59.2857
2022-12-29T10:38:33.083Z,58.8571
2022-12-29T10:39:33.111Z,58.6429
2022-12-29T10:40:33.192Z,58.2857
2022-12-29T10:41:33.171Z,58.2857
2022-12-29T10:42:33.219Z,58.3571
2022-12-29T10:43:33.236Z,58.5
2022-12-29T10:44:33.264Z,58.4286
2022-12-29T10:45:33.323Z,58.4286
2022-12-29T10:46:33.322Z,58.2857
2022-12-29T10:47:33.363Z,58.5
2022-12-29T10:48:33.392Z,58.3571
2022-12-29T10:49:33.418Z,58.2143
2022-12-29T10:50:33.453Z,58.2143
2022-12-29T10:51:33.539Z,58.0714
2022-12-29T10:52:33.526Z,57.9286
2022-12-29T10:53:33.552Z,57.9286
2022-12-29T10:54:33.604Z,58
2022-12-29T10:55:33.633Z,57.7857
2022-12-29T10:56:33.677Z,57.7143
2022-12-29T10:57:33.722Z,57.7143
2022-12-29T10:58:33.731Z,57.7857
2022-12-29T10:59:33.754Z,58.0714
2022-12-29T11:00:33.919Z,58.0714
2022-12-29T11:01:33.967Z,58
2022-12-29T11:02:34.016Z,58.1429
2022-12-29T11:03:33.910Z,58.2143
2022-12-29T11:04:33.908Z,58.2143
2022-12-29T11:05:33.933Z,58.2857
2022-12-29T11:06:33.970Z,58
2022-12-29T11:07:34.004Z,58
2022-12-29T11:08:34.038Z,58.0714
2022-12-29T11:09:42.714Z,57.8571
2022-12-29T11:10:34.111Z,57.9286
2022-12-29T11:11:34.157Z,58
2022-12-29T11:12:34.181Z,58.2143
2022-12-29T11:13:38.907Z,58.1429
2022-12-29T11:14:34.237Z,57.7857
2022-12-29T11:15:34.268Z,57.8571
2022-12-29T11:16:34.432Z,57.7857
2022-12-29T11:17:34.339Z,57.9286
2022-12-29T11:18:34.372Z,58
2022-12-29T11:19:39.168Z,58.0714
2022-12-29T11:20:34.456Z,58.2143
2022-12-29T11:21:34.461Z,58.1429
2022-12-29T11:22:34.482Z,58.0714
2022-12-29T11:23:34.511Z,58.2857
2022-12-29T11:24:34.552Z,58.5
2022-12-29T11:25:34.601Z,58.1429
2022-12-29T11:26:35.162Z,58.2857
2022-12-29T11:27:34.671Z,58.4286
2022-12-29T11:28:34.685Z,58.6429
2022-12-29T11:29:34.716Z,58.5714
2022-12-29T11:30:34.759Z,58.2857
2022-12-29T11:31:34.821Z,58.2857
2022-12-29T11:32:34.853Z,58.5
2022-12-29T11:33:34.844Z,58.5714
2022-12-29T11:34:34.898Z,58.7857
2022-12-29T11:35:34.903Z,58.4286
2022-12-29T11:36:34.945Z,58.5
2022-12-29T11:37:35.004Z,58.7143
2022-12-29T11:38:35.016Z,59
2022-12-29T11:39:35.037Z,59
2022-12-29T11:40:35.079Z,58.7857
2022-12-29T11:41:35.100Z,58.7857
2022-12-29T11:42:35.147Z,59.1429
2022-12-29T11:43:35.172Z,59.2857
2022-12-29T11:44:35.201Z,59.6429
2022-12-29T11:45:35.279Z,59.8571
2022-12-29T11:46:35.337Z,59.8571
2022-12-29T11:47:35.307Z,60.2143
2022-12-29T11:48:35.332Z,60.2143
2022-12-29T11:49:35.368Z,60.4286
2022-12-29T11:50:35.400Z,60.5714
2022-12-29T11:51:35.520Z,60.7857
2022-12-29T11:52:35.469Z,61.2143
2022-12-29T11:53:35.513Z,61.5714
2022-12-29T11:54:35.561Z,62
2022-12-29T11:55:35.590Z,62.3571
2022-12-29T11:56:40.463Z,62.4286
2022-12-29T11:57:35.658Z,62.3571
2022-12-29T11:58:35.689Z,62.5
2022-12-29T11:59:35.738Z,62.8571
2022-12-29T12:00:35.759Z,63.2857
2022-12-29T12:01:35.877Z,63.5
2022-12-29T12:02:42.053Z,63.5
2022-12-29T12:03:35.972Z,63.5714
2022-12-29T12:04:35.922Z,63.7857
2022-12-29T12:05:35.927Z,63.7857
2022-12-29T12:06:35.960Z,63.9286
2022-12-29T12:07:35.997Z,64.2143
2022-12-29T12:08:36.033Z,64.3571
2022-12-29T12:09:36.077Z,64.5714
2022-12-29T12:10:36.102Z,64.7857
2022-12-29T12:11:36.143Z,64.7857
2022-12-29T12:12:36.170Z,65.0714
2022-12-29T12:13:36.208Z,65.3571
2022-12-29T12:14:36.249Z,65.5
2022-12-29T12:15:41.857Z,65.6429
2022-12-29T12:16:36.374Z,65.7857
2022-12-29T12:17:36.352Z,65.8571
2022-12-29T12:18:36.399Z,65.9286
2022-12-29T12:19:36.417Z,66